Time;durP1;ratioP1;P1;durP2;ratioP2;P2;SDS_P1;SDS_P2;PMS_P1;PMS_P2;Temp;Humidity;BMP_temperature;BMP_pressure;BME280_temperature;BME280_humidity;BME280_pressure;Samples;Min_cycle;Max_cycle;Signal;HPM_P1;HPM_P2
2022/05/02 00:00:28;;;;;;;;;;;;;;;7.26;100.00;101565.75;5072257;28;19917;-79
2022/05/02 00:02:56;;;;;;;;;;;;;;;7.18;100.00;101538.19;5055882;28;19951;-77
2022/05/02 00:05:22;;;;;;;;;;;;;;;7.21;100.00;101530.50;5073633;28;19916;-77
2022/05/02 00:07:47;;;;;;;;;;;;;;;7.17;100.00;101528.50;5073209;28;19916;-77
2022/05/02 00:10:13;;;;;;;;;;;;;;;7.17;100.00;101508.44;5073459;28;20361;-77
2022/05/02 00:12:39;;;;;;;;;;;;;;;7.23;100.00;101496.56;5073720;28;20023;-77
2022/05/02 00:15:05;;;;;;;;;;;;;;;7.22;100.00;101494.75;5072611;28;20348;-77
2022/05/02 00:20:14;;;;;;;;;;;;;;;7.08;100.00;101478.19;5074615;28;19959;-77
2022/05/02 00:22:40;;;;;;;;;;;;;;;7.07;100.00;101474.69;5073169;28;19912;-77
2022/05/02 00:25:05;;;;;;;;;;;;;;;7.07;100.00;101479.00;5074430;28;19917;-76
2022/05/02 00:27:31;;;;;;;;;;;;;;;7.03;100.00;101461.31;5072864;28;19916;-76
2022/05/02 00:29:56;;;;;;;;;;;;;;;7.03;100.00;101459.59;5072547;28;19920;-77
2022/05/02 00:32:21;;;;;;;;;;;;;;;7.03;100.00;101456.97;5073198;28;19924;-75
2022/05/02 00:34:49;;;;;;;;;;;;;;;7.04;100.00;101450.00;5055708;28;19925;-76
2022/05/02 00:37:15;;;;;;;;;;;;;;;6.99;100.00;101437.56;5073293;28;19970;-76
2022/05/02 00:39:41;;;;;;;;;;;;;;;6.97;100.00;101426.06;5056228;28;19920;-76
2022/05/02 00:42:06;;;;;;;;;;;;;;;6.91;100.00;101411.72;5072199;28;19990;-75
2022/05/02 00:44:33;;;;;;;;;;;;;;;6.85;100.00;101386.06;5072937;28;19958;-76
2022/05/02 00:46:58;;;;;;;;;;;;;;;6.88;100.00;101346.09;5072473;28;19931;-75
2022/05/02 00:49:24;;;;;;;;;;;;;;;6.86;100.00;101305.84;5072451;28;19916;-75
2022/05/02 00:51:49;;;;;;;;;;;;;;;6.84;100.00;101287.41;5072377;28;20003;-75
2022/05/02 00:54:16;;;;;;;;;;;;;;;6.83;100.00;101257.69;5073693;28;19920;-75
2022/05/02 00:56:42;;;;;;;;;;;;;;;6.78;100.00;101227.75;5055558;28;19920;-75
2022/05/02 00:59:08;;;;;;;;;;;;;;;6.78;100.00;101188.50;5071992;28;20483;-75
2022/05/02 01:01:33;;;;;;;;;;;;;;;6.73;100.00;101166.41;5072561;28;19950;-75
2022/05/02 01:04:00;;;;;;;;;;;;;;;6.73;100.00;101137.59;5071668;28;19920;-75
2022/05/02 01:09:09;;;;;;;;;;;;;;;6.76;100.00;101067.09;5073345;28;19927;-75
2022/05/02 01:11:35;;;;;;;;;;;;;;;6.81;100.00;101052.56;5071919;28;19913;-75
2022/05/02 01:14:01;;;;;;;;;;;;;;;6.74;100.00;101034.72;5071745;28;19916;-75
2022/05/02 01:16:27;;;;;;;;;;;;;;;6.73;100.00;101006.75;5072334;28;19951;-74
2022/05/02 01:18:54;;;;;;;;;;;;;;;6.74;100.00;100984.09;5071699;28;19917;-76
2022/05/02 01:21:20;;;;;;;;;;;;;;;6.72;100.00;100956.94;5072397;28;19938;-77
2022/05/02 01:24:00;;;;;;;;;;;;;;;6.68;100.00;100937.56;5071857;28;20432;-76
2022/05/02 01:26:26;;;;;;;;;;;;;;;6.67;100.00;100895.63;5070925;28;20372;-77
2022/05/02 01:28:52;;;;;;;;;;;;;;;6.59;100.00;100875.19;5071662;28;19973;-78
2022/05/02 01:31:19;;;;;;;;;;;;;;;6.62;100.00;100845.66;5072994;28;19917;-76
2022/05/02 01:33:47;;;;;;;;;;;;;;;6.62;100.00;100832.59;5072175;28;20102;-77
2022/05/02 01:36:13;;;;;;;;;;;;;;;6.59;100.00;100829.81;5072194;28;19963;-76
2022/05/02 01:38:38;;;;;;;;;;;;;;;6.58;100.00;100796.59;5071774;28;19916;-76
2022/05/02 01:41:04;;;;;;;;;;;;;;;6.55;100.00;100770.28;5071697;28;20335;-76
2022/05/02 01:43:34;;;;;;;;;;;;;;;6.52;100.00;100759.66;5071765;28;20073;-75
2022/05/02 01:46:00;;;;;;;;;;;;;;;6.51;100.00;100739.53;5071440;28;19921;-76
2022/05/02 01:48:26;;;;;;;;;;;;;;;6.44;100.00;100723.53;5073015;28;20492;-75
2022/05/02 01:50:51;;;;;;;;;;;;;;;6.46;100.00;100727.16;5071988;28;19955;-76
2022/05/02 01:53:17;;;;;;;;;;;;;;;6.45;100.00;100709.66;5071935;28;19962;-77
2022/05/02 01:55:42;;;;;;;;;;;;;;;6.47;100.00;100691.41;5071791;28;19916;-77
2022/05/02 01:58:07;;;;;;;;;;;;;;;6.44;100.00;100689.53;5071860;28;19916;-77
2022/05/02 02:00:32;;;;;;;;;;;;;;;6.41;100.00;100676.28;5071638;28;19920;-77
2022/05/02 02:03:03;;;;;;;;;;;;;;;6.40;100.00;100664.06;5071658;28;19974;-77
2022/05/02 02:08:12;;;;;;;;;;;;;;;6.37;100.00;100610.69;5073999;28;19958;-77
2022/05/02 02:10:38;;;;;;;;;;;;;;;6.38;100.00;100595.06;5073683;28;19912;-77
2022/05/02 02:13:03;;;;;;;;;;;;;;;6.38;100.00;100582.00;5072703;28;19916;-76
2022/05/02 02:15:28;;;;;;;;;;;;;;;6.33;100.00;100573.03;5071448;28;19920;-76
2022/05/02 02:17:54;;;;;;;;;;;;;;;6.25;100.00;100571.78;5072191;28;19924;-76
2022/05/02 02:20:19;;;;;;;;;;;;;;;6.20;100.00;100562.78;5054595;28;19927;-76
2022/05/02 02:22:45;;;;;;;;;;;;;;;6.20;100.00;100541.88;5071065;28;19917;-75
2022/05/02 02:25:10;;;;;;;;;;;;;;;6.17;100.00;100537.41;5070820;28;19955;-75
2022/05/02 02:27:35;;;;;;;;;;;;;;;6.19;100.00;100534.88;5070663;28;19921;-75
2022/05/02 02:30:01;;;;;;;;;;;;;;;6.17;100.00;100515.56;5072474;28;20447;-75
2022/05/02 02:32:26;;;;;;;;;;;;;;;6.13;100.00;100495.34;5054757;28;20019;-75
2022/05/02 02:34:54;;;;;;;;;;;;;;;6.13;100.00;100474.44;5071932;28;19921;-75
2022/05/02 02:37:19;;;;;;;;;;;;;;;6.10;100.00;100457.75;5073181;28;19920;-76
2022/05/02 02:39:45;;;;;;;;;;;;;;;6.11;100.00;100416.84;5075079;28;19916;-75
2022/05/02 02:42:11;;;;;;;;;;;;;;;6.08;100.00;100394.06;5074403;28;20437;-75
2022/05/02 02:44:39;;;;;;;;;;;;;;;6.04;100.00;100363.38;5074571;28;19920;-75
2022/05/02 02:47:04;;;;;;;;;;;;;;;6.06;100.00;100342.53;5074285;28;20007;-75
2022/05/02 02:49:30;;;;;;;;;;;;;;;6.04;100.00;100311.09;5057704;28;19978;-75
2022/05/02 02:51:55;;;;;;;;;;;;;;;6.04;100.00;100294.53;5074436;28;19916;-75
2022/05/02 02:54:20;;;;;;;;;;;;;;;6.02;100.00;100270.94;5074312;28;20383;-76
2022/05/02 02:56:46;;;;;;;;;;;;;;;6.01;100.00;100258.72;5074058;28;20363;-75
2022/05/02 02:59:11;;;;;;;;;;;;;;;5.94;100.00;100252.25;5074455;28;20411;-76
2022/05/02 03:01:37;;;;;;;;;;;;;;;5.85;100.00;100254.44;5074433;28;19916;-76
2022/05/02 03:06:46;;;;;;;;;;;;;;;5.74;100.00;100212.16;5075389;28;20012;-76
2022/05/02 03:09:11;;;;;;;;;;;;;;;5.68;100.00;100195.31;5074214;28;19952;-75
2022/05/02 03:11:36;;;;;;;;;;;;;;;5.63;100.00;100176.84;5075298;28;19924;-75
2022/05/02 03:14:03;;;;;;;;;;;;;;;5.64;100.00;100164.66;5057209;28;19917;-75
2022/05/02 03:16:28;;;;;;;;;;;;;;;5.62;100.00;100145.44;5073312;28;19916;-75
2022/05/02 03:18:53;;;;;;;;;;;;;;;5.61;100.00;100120.13;5074007;28;20011;-75
2022/05/02 03:21:19;;;;;;;;;;;;;;;5.59;100.00;100099.16;5073867;28;20364;-75
2022/05/02 03:23:45;;;;;;;;;;;;;;;5.53;100.00;100088.44;5073451;28;19928;-75
2022/05/02 03:26:10;;;;;;;;;;;;;;;5.44;100.00;100073.28;5073399;28;19916;-75
2022/05/02 03:28:36;;;;;;;;;;;;;;;5.39;100.00;100066.94;5057146;28;19929;-75
2022/05/02 03:31:01;;;;;;;;;;;;;;;5.40;100.00;100040.00;5073623;28;19917;-75
2022/05/02 03:33:26;;;;;;;;;;;;;;;5.39;100.00;100039.13;5073716;28;20296;-76
2022/05/02 03:35:51;;;;;;;;;;;;;;;5.36;100.00;100028.56;5071389;28;19912;-77
2022/05/02 03:38:17;;;;;;;;;;;;;;;5.37;100.00;100025.09;5073470;28;19916;-77
2022/05/02 03:40:42;;;;;;;;;;;;;;;5.37;100.00;100030.31;5074122;28;20298;-78
2022/05/02 03:43:08;;;;;;;;;;;;;;;5.38;100.00;100033.84;5056738;28;19931;-77
2022/05/02 03:45:34;;;;;;;;;;;;;;;5.32;100.00;100024.00;5073839;28;20337;-75
2022/05/02 03:47:59;;;;;;;;;;;;;;;5.31;100.00;100024.81;5073030;28;19966;-76
2022/05/02 03:50:24;;;;;;;;;;;;;;;5.31;100.00;100024.81;5074582;28;19924;-76
2022/05/02 03:52:52;;;;;;;;;;;;;;;5.28;100.00;100023.81;5074110;28;20014;-76
2022/05/02 03:55:17;;;;;;;;;;;;;;;5.28;100.00;100031.66;5073785;28;19955;-75
2022/05/02 03:57:42;;;;;;;;;;;;;;;5.24;100.00;100030.63;5056991;28;19996;-76
2022/05/02 04:00:08;;;;;;;;;;;;;;;5.27;100.00;100029.88;5073438;28;20019;-75
2022/05/02 04:02:34;;;;;;;;;;;;;;;5.23;100.00;100028.84;5073086;28;19916;-76
2022/05/02 04:04:59;;;;;;;;;;;;;;;5.22;100.00;100022.72;5072831;28;19927;-74
2022/05/02 04:07:24;;;;;;;;;;;;;;;5.26;100.00;100033.31;5073865;28;20353;-77
2022/05/02 04:09:50;;;;;;;;;;;;;;;5.26;100.00;100031.56;5056711;28;19928;-79
2022/05/02 04:12:15;;;;;;;;;;;;;;;5.27;100.00;100030.75;5073414;28;20379;-76
2022/05/02 04:14:41;;;;;;;;;;;;;;;5.24;100.00;100030.63;5074740;28;19916;-76
2022/05/02 04:17:07;;;;;;;;;;;;;;;5.33;100.00;100028.41;5073462;28;19966;-77
2022/05/02 04:19:32;;;;;;;;;;;;;;;5.36;100.00;100025.94;5073287;28;19956;-78
2022/05/02 04:21:57;;;;;;;;;;;;;;;5.39;100.00;100014.72;5072742;28;19917;-78
2022/05/02 04:24:24;;;;;;;;;;;;;;;5.43;100.00;100021.00;5074169;28;19956;-78
2022/05/02 04:26:49;;;;;;;;;;;;;;;5.37;100.00;100022.50;5072374;28;20150;-77
2022/05/02 04:29:14;;;;;;;;;;;;;;;5.41;100.00;100023.53;5072217;28;19921;-77
2022/05/02 04:31:39;;;;;;;;;;;;;;;5.42;100.00;100022.69;5072436;28;19916;-76
2022/05/02 04:34:07;;;;;;;;;;;;;;;5.45;100.00;100029.78;5055166;28;19956;-79
2022/05/02 04:36:32;;;;;;;;;;;;;;;5.51;100.00;100016.97;5073348;28;19970;-76
2022/05/02 04:38:57;;;;;;;;;;;;;;;5.64;100.00;100015.78;5071904;28;19916;-75
2022/05/02 04:41:22;;;;;;;;;;;;;;;5.71;100.00;100013.50;5071610;28;19923;-76
2022/05/02 04:43:51;;;;;;;;;;;;;;;5.84;100.00;99995.72;5071979;28;20292;-76
2022/05/02 04:46:18;;;;;;;;;;;;;;;6.17;100.00;99979.63;5071706;28;19963;-77
2022/05/02 04:48:43;;;;;;;;;;;;;;;7.00;100.00;99933.94;5072720;28;19956;-77
2022/05/02 04:51:08;;;;;;;;;;;;;;;8.00;100.00;99880.47;5071327;28;19917;-76
2022/05/02 04:53:35;;;;;;;;;;;;;;;8.41;100.00;99879.09;5071190;28;19916;-75
2022/05/02 04:56:00;;;;;;;;;;;;;;;8.70;100.00;99904.41;5071569;28;19916;-77
2022/05/02 04:58:25;;;;;;;;;;;;;;;8.41;100.00;99970.03;5071713;28;19917;-76
2022/05/02 05:00:51;;;;;;;;;;;;;;;8.23;100.00;100035.91;5054201;28;20011;-76
2022/05/02 05:03:18;;;;;;;;;;;;;;;8.07;100.00;100161.25;5071080;28;19973;-76
2022/05/02 05:05:43;;;;;;;;;;;;;;;8.24;100.00;100222.19;5071347;28;20302;-76
2022/05/02 05:08:08;;;;;;;;;;;;;;;8.59;100.00;100277.66;5071128;28;20133;-75
2022/05/02 05:10:43;;;;;;;;;;;;;;;8.67;100.00;100338.31;5072520;28;19924;-76
2022/05/02 05:13:12;;;;;;;;;;;;;;;8.76;100.00;100464.66;5071027;28;19920;-76
2022/05/02 05:18:41;;;;;;;;;;;;;;;8.95;100.00;100615.00;5072616;28;19923;-76
2022/05/02 05:21:19;;;;;;;;;;;;;;;8.87;100.00;100666.31;5071024;28;20399;-76
2022/05/02 05:23:47;;;;;;;;;;;;;;;8.79;100.00;100713.25;5071222;28;19916;-75
2022/05/02 05:26:15;;;;;;;;;;;;;;;8.86;100.00;100743.31;5071483;28;19917;-76
2022/05/02 05:28:49;;;;;;;;;;;;;;;9.23;100.00;100776.31;5069612;28;19928;-77
2022/05/02 05:31:14;;;;;;;;;;;;;;;9.83;100.00;100825.97;5072529;28;19917;-77
2022/05/02 05:33:40;;;;;;;;;;;;;;;10.21;100.00;100881.81;5071254;28;20416;-76
2022/05/02 05:36:12;;;;;;;;;;;;;;;10.80;100.00;100969.16;5071456;28;19939;-77
2022/05/02 05:38:37;;;;;;;;;;;;;;;11.44;100.00;101181.50;5071535;28;19912;-75
2022/05/02 05:41:21;;;;;;;;;;;;;;;11.68;100.00;101334.53;5071059;28;20361;-76
2022/05/02 05:43:52;;;;;;;;;;;;;;;11.99;100.00;101440.41;5070815;28;19923;-78
2022/05/02 05:46:30;;;;;;;;;;;;;;;12.61;100.00;101545.81;5070762;28;19939;-76
2022/05/02 05:49:14;;;;;;;;;;;;;;;13.22;100.00;101675.06;5070525;28;19916;-76
2022/05/02 05:51:42;;;;;;;;;;;;;;;14.09;100.00;101748.00;5071873;28;19977;-77
2022/05/02 05:54:12;;;;;;;;;;;;;;;14.11;100.00;101814.25;5071016;28;19953;-78
2022/05/02 05:56:51;;;;;;;;;;;;;;;15.26;100.00;101863.34;5071630;28;19923;-77
2022/05/02 05:59:32;;;;;;;;;;;;;;;14.78;100.00;101910.34;5071127;28;19923;-77
2022/05/02 06:02:15;;;;;;;;;;;;;;;14.03;100.00;101922.56;5071954;28;20292;-75
2022/05/02 06:04:43;;;;;;;;;;;;;;;13.93;100.00;101939.81;5070821;28;19916;-78
2022/05/02 06:07:08;;;;;;;;;;;;;;;13.72;100.00;101942.50;5070851;28;19924;-78
2022/05/02 06:09:36;;;;;;;;;;;;;;;13.86;100.00;101958.03;5071504;28;19917;-78
2022/05/02 06:12:01;;;;;;;;;;;;;;;13.85;100.00;101974.78;5071960;28;19935;-78
2022/05/02 06:14:30;;;;;;;;;;;;;;;14.10;100.00;101979.31;5075053;28;19916;-76
2022/05/02 06:19:42;;;;;;;;;;;;;;;13.91;100.00;101991.81;5076433;28;19923;-78
2022/05/02 06:22:10;;;;;;;;;;;;;;;13.49;100.00;101983.91;5074954;28;19923;-78
2022/05/02 06:24:38;;;;;;;;;;;;;;;13.65;100.00;101981.03;5074755;28;19927;-78
2022/05/02 06:27:04;;;;;;;;;;;;;;;13.97;100.00;101988.50;5075229;28;19917;-77
2022/05/02 06:29:32;;;;;;;;;;;;;;;14.58;100.00;101999.69;5074996;28;19931;-76
2022/05/02 06:32:00;;;;;;;;;;;;;;;14.79;100.00;102013.78;5074832;28;19916;-79
2022/05/02 06:34:28;;;;;;;;;;;;;;;14.19;100.00;102019.41;5074938;28;19962;-77
2022/05/02 06:37:09;;;;;;;;;;;;;;;13.85;100.00;102015.38;5074936;28;19916;-78
2022/05/02 06:39:53;;;;;;;;;;;;;;;15.35;100.00;102029.94;5074727;28;19963;-77
2022/05/02 06:42:28;;;;;;;;;;;;;;;15.81;100.00;102058.97;5073314;28;20435;-74
2022/05/02 06:44:57;;;;;;;;;;;;;;;16.51;100.00;102065.66;5073557;28;19923;-78
2022/05/02 06:47:31;;;;;;;;;;;;;;;16.81;100.00;102073.66;5074570;28;19916;-77
2022/05/02 06:49:57;;;;;;;;;;;;;;;14.62;100.00;102052.91;5075018;28;20006;-77
2022/05/02 06:52:30;;;;;;;;;;;;;;;15.25;100.00;102057.91;5074407;28;20007;-75
2022/05/02 06:54:59;;;;;;;;;;;;;;;15.89;100.00;102068.97;5074832;28;19924;-78
2022/05/02 06:57:43;;;;;;;;;;;;;;;15.82;100.00;102084.66;5074344;28;19970;-75
2022/05/02 07:00:10;;;;;;;;;;;;;;;15.33;100.00;102062.59;5073852;28;20275;-77
2022/05/02 07:02:54;;;;;;;;;;;;;;;14.19;100.00;102052.09;5073864;28;20415;-75
2022/05/02 07:05:22;;;;;;;;;;;;;;;14.93;100.00;102048.78;5074054;28;19935;-76
2022/05/02 07:07:57;;;;;;;;;;;;;;;15.33;100.00;102070.53;5073764;28;19929;-77
2022/05/02 07:10:24;;;;;;;;;;;;;;;16.01;100.00;102076.47;5073305;28;19919;-77
2022/05/02 07:13:02;;;;;;;;;;;;;;;17.50;100.00;102082.72;5074147;28;20369;-75
2022/05/02 07:15:49;;;;;;;;;;;;;;;17.59;100.00;102093.63;5074624;28;19912;-75
2022/05/02 07:18:27;;;;;;;;;;;;;;;17.04;100.00;102089.41;5073567;28;19917;-75
2022/05/02 07:20:52;;;;;;;;;;;;;;;17.86;100.00;102100.53;5072886;28;20398;-75
2022/05/02 07:23:17;;;;;;;;;;;;;;;17.33;100.00;102097.34;5071972;28;19916;-75
2022/05/02 07:25:44;;;;;;;;;;;;;;;18.18;100.00;102092.50;5073188;28;20292;-78
2022/05/02 07:28:22;;;;;;;;;;;;;;;18.90;100.00;102095.94;5072989;28;19925;-78
2022/05/02 07:30:47;;;;;;;;;;;;;;;17.19;100.00;102094.31;5074485;28;19970;-77
2022/05/02 07:33:14;;;;;;;;;;;;;;;18.00;100.00;102100.03;5073318;28;20370;-77
2022/05/02 07:35:40;;;;;;;;;;;;;;;18.85;100.00;102108.31;5072852;28;19956;-78
2022/05/02 07:38:07;;;;;;;;;;;;;;;19.25;100.00;102103.81;5072865;28;19970;-78
2022/05/02 07:40:33;;;;;;;;;;;;;;;19.38;100.00;102111.16;5073382;28;19916;-75
2022/05/02 07:43:00;;;;;;;;;;;;;;;18.75;100.00;102104.50;5072772;28;20015;-79
2022/05/02 07:45:29;;;;;;;;;;;;;;;19.42;100.00;102106.81;5071750;28;19923;-79
2022/05/02 07:47:57;;;;;;;;;;;;;;;19.10;100.00;102108.81;5074006;28;19963;-78
2022/05/02 07:50:25;;;;;;;;;;;;;;;19.04;100.00;102112.25;5073513;28;19951;-77
2022/05/02 07:52:52;;;;;;;;;;;;;;;18.99;100.00;102101.47;5072560;28;19986;-78
2022/05/02 07:55:20;;;;;;;;;;;;;;;19.42;100.00;102108.56;5073041;28;19955;-78
2022/05/02 07:57:47;;;;;;;;;;;;;;;19.17;100.00;102105.41;5072881;28;19917;-78
2022/05/02 08:00:13;;;;;;;;;;;;;;;19.11;100.00;102103.53;5073043;28;19917;-78
2022/05/02 08:02:38;;;;;;;;;;;;;;;18.80;100.00;102104.59;5073075;28;20000;-79
2022/05/02 08:05:05;;;;;;;;;;;;;;;18.29;100.00;102100.78;5072034;28;20017;-78
2022/05/02 08:07:43;;;;;;;;;;;;;;;19.01;100.00;102107.75;5072800;28;19921;-78
2022/05/02 08:10:17;;;;;;;;;;;;;;;18.15;100.00;102110.16;5072477;28;20253;-79
2022/05/02 08:12:55;;;;;;;;;;;;;;;16.85;100.00;102110.13;5072971;28;19920;-78
2022/05/02 08:15:25;;;;;;;;;;;;;;;17.73;100.00;102109.09;5072814;28;19924;-78
2022/05/02 08:17:54;;;;;;;;;;;;;;;17.70;100.00;102112.56;5072422;28;19917;-78
2022/05/02 08:20:26;;;;;;;;;;;;;;;17.49;100.00;102104.88;5072754;28;20421;-78
2022/05/02 08:28:48;;;;;;;;;;;;;;;16.58;100.00;102110.19;5073715;28;19970;-78
2022/05/02 08:31:24;;;;;;;;;;;;;;;16.51;100.00;102109.13;5073000;28;20273;-78
2022/05/02 08:34:09;;;;;;;;;;;;;;;17.06;100.00;102114.34;5072814;28;20318;-78
2022/05/02 08:36:47;;;;;;;;;;;;;;;17.18;100.00;102106.72;5067268;28;20019;-78
2022/05/02 08:39:15;;;;;;;;;;;;;;;18.07;100.00;102110.91;5072906;28;20280;-78
2022/05/02 08:41:53;;;;;;;;;;;;;;;17.82;100.00;102120.00;5072978;28;19956;-79
2022/05/02 08:44:24;;;;;;;;;;;;;;;17.15;100.00;102111.94;5073034;28;19916;-78
2022/05/02 08:47:10;;;;;;;;;;;;;;;17.41;100.00;102109.09;5072340;28;19920;-78
2022/05/02 08:49:54;;;;;;;;;;;;;;;17.06;100.00;102109.03;5072551;28;19930;-78
2022/05/02 08:52:19;;;;;;;;;;;;;;;17.49;100.00;102104.00;5072425;28;19920;-79
2022/05/02 08:55:04;;;;;;;;;;;;;;;16.95;100.00;102106.03;5072688;28;19966;-79
2022/05/02 08:57:41;;;;;;;;;;;;;;;17.39;100.00;102110.84;5071022;28;19917;-77
2022/05/02 09:00:30;;;;;;;;;;;;;;;17.05;100.00;102107.22;5070891;28;19952;-77
2022/05/02 09:03:06;;;;;;;;;;;;;;;17.07;100.00;102107.25;5018348;28;19967;-78
2022/05/02 09:05:31;;;;;;;;;;;;;;;18.06;100.00;102102.88;5072011;28;19920;-78
2022/05/02 09:08:16;;;;;;;;;;;;;;;17.13;100.00;102112.75;5071409;28;20338;-77
2022/05/02 09:10:44;;;;;;;;;;;;;;;17.36;100.00;102098.34;5072523;28;19917;-77
2022/05/02 09:13:29;;;;;;;;;;;;;;;17.31;100.00;102094.66;5072896;28;19917;-78
2022/05/02 09:16:17;;;;;;;;;;;;;;;17.07;100.00;102096.59;5073309;28;19913;-78
2022/05/02 09:19:01;;;;;;;;;;;;;;;17.86;100.00;102089.88;5045003;28;20007;-78
2022/05/02 09:21:45;;;;;;;;;;;;;;;18.17;100.00;102100.47;5072184;28;20434;-78
2022/05/02 09:24:29;;;;;;;;;;;;;;;18.29;100.00;102092.78;5071438;28;20441;-78
2022/05/02 09:26:55;;;;;;;;;;;;;;;17.16;100.00;102100.44;5071930;28;19958;-78
2022/05/02 09:29:36;;;;;;;;;;;;;;;17.20;100.00;102081.03;5071645;28;19920;-79
2022/05/02 09:32:16;;;;;;;;;;;;;;;17.97;100.00;102078.66;5055226;28;19959;-77
2022/05/02 09:35:03;;;;;;;;;;;;;;;17.28;100.00;102078.59;5071616;28;20305;-77
2022/05/02 09:37:38;;;;;;;;;;;;;;;16.29;100.00;102077.38;5055271;28;19966;-78
2022/05/02 09:40:04;;;;;;;;;;;;;;;16.23;100.00;102071.84;5054928;28;19917;-78
2022/05/02 09:42:34;;;;;;;;;;;;;;;15.74;100.00;102079.97;5071439;28;19965;-77
2022/05/02 09:51:03;;;;;;;;;;;;;;;15.97;100.00;102077.19;5053043;28;19917;-78
2022/05/02 09:53:47;;;;;;;;;;;;;;;16.81;100.00;102071.00;5073034;28;20384;-78
2022/05/02 09:56:38;;;;;;;;;;;;;;;16.70;100.00;102072.41;5071532;28;19917;-78
2022/05/02 09:59:23;;;;;;;;;;;;;;;16.64;100.00;102075.81;5054974;28;20016;-78
2022/05/02 10:01:50;;;;;;;;;;;;;;;16.24;100.00;102065.69;5071876;28;20007;-78
2022/05/02 10:04:36;;;;;;;;;;;;;;;16.51;100.00;102069.22;5071676;28;19916;-77
2022/05/02 10:07:11;;;;;;;;;;;;;;;16.62;100.00;102065.97;5071506;28;20015;-78
2022/05/02 10:09:54;;;;;;;;;;;;;;;16.19;100.00;102072.59;5071000;28;19927;-75
2022/05/02 10:12:31;;;;;;;;;;;;;;;16.49;100.00;102065.59;5072109;28;20388;-76
2022/05/02 10:15:00;;;;;;;;;;;;;;;16.56;100.00;102068.44;5071354;28;19924;-75
2022/05/02 10:17:44;;;;;;;;;;;;;;;16.23;100.00;102069.19;5071103;28;20054;-76
2022/05/02 10:20:15;;;;;;;;;;;;;;;16.51;100.00;102058.59;5072710;28;19917;-77
2022/05/02 10:22:49;;;;;;;;;;;;;;;16.27;100.00;102060.47;5071139;28;19966;-77
2022/05/02 10:25:20;;;;;;;;;;;;;;;16.26;100.00;102058.66;5071208;28;19916;-77
2022/05/02 10:28:04;;;;;;;;;;;;;;;16.01;100.00;102059.63;5070977;28;19916;-77
2022/05/02 10:30:48;;;;;;;;;;;;;;;16.48;100.00;102058.50;5071433;28;20360;-76
2022/05/02 10:33:15;;;;;;;;;;;;;;;16.98;100.00;102052.00;5072371;28;20011;-76
2022/05/02 10:35:44;;;;;;;;;;;;;;;16.94;100.00;102050.13;5071069;28;19916;-76
2022/05/02 10:38:12;;;;;;;;;;;;;;;16.14;100.00;102064.47;5053605;28;19925;-76
2022/05/02 10:40:39;;;;;;;;;;;;;;;16.69;100.00;102049.38;5070750;28;19917;-77
2022/05/02 10:43:07;;;;;;;;;;;;;;;16.82;100.00;102054.16;5071070;28;19939;-78
2022/05/02 10:45:35;;;;;;;;;;;;;;;16.25;100.00;102048.88;5070933;28;19962;-78
2022/05/02 10:48:11;;;;;;;;;;;;;;;16.79;100.00;102045.22;5071246;28;19971;-78
2022/05/02 10:50:37;;;;;;;;;;;;;;;16.41;100.00;102053.84;5071828;28;19917;-79
2022/05/02 10:53:22;;;;;;;;;;;;;;;16.63;100.00;102039.44;5070910;28;19916;-75
2022/05/02 10:56:05;;;;;;;;;;;;;;;16.41;100.00;102048.53;5070889;28;20680;-76
2022/05/02 10:58:32;;;;;;;;;;;;;;;16.80;100.00;102044.38;5056556;28;19971;-77
2022/05/02 11:01:03;;;;;;;;;;;;;;;16.54;100.00;102049.78;5074425;28;20011;-77
2022/05/02 11:03:44;;;;;;;;;;;;;;;16.24;100.00;102047.09;5074239;28;20301;-77
2022/05/02 11:06:22;;;;;;;;;;;;;;;16.42;100.00;102050.34;5074988;28;19924;-76
2022/05/02 11:08:52;;;;;;;;;;;;;;;16.45;100.00;102045.13;5052872;28;19916;-76
2022/05/02 11:11:25;;;;;;;;;;;;;;;16.40;100.00;102040.50;5073878;28;20416;-76
2022/05/02 11:14:00;;;;;;;;;;;;;;;16.09;100.00;102040.41;5073286;28;19920;-76
2022/05/02 11:16:26;;;;;;;;;;;;;;;16.59;100.00;102037.53;5074064;28;19919;-76
2022/05/02 11:21:50;;;;;;;;;;;;;;;16.96;100.00;102035.09;5075226;28;19965;-75
2022/05/02 11:24:21;;;;;;;;;;;;;;;16.95;100.00;102041.25;5074245;28;20384;-76
2022/05/02 11:26:55;;;;;;;;;;;;;;;16.58;100.00;102035.75;5073947;28;19917;-76
2022/05/02 11:29:23;;;;;;;;;;;;;;;16.94;100.00;102032.38;5074123;28;19927;-76
2022/05/02 11:31:51;;;;;;;;;;;;;;;17.14;100.00;102037.38;5074935;28;20371;-75
2022/05/02 11:34:25;;;;;;;;;;;;;;;16.91;100.00;102034.06;5073492;28;19916;-76
2022/05/02 11:36:55;;;;;;;;;;;;;;;17.01;100.00;102028.13;5075028;28;19917;-76
2022/05/02 11:39:34;;;;;;;;;;;;;;;17.20;100.00;102035.78;5073707;28;20603;-76
2022/05/02 11:42:07;;;;;;;;;;;;;;;16.87;100.00;102022.41;5072859;28;20254;-78
2022/05/02 11:44:43;;;;;;;;;;;;;;;17.11;100.00;102018.69;5074015;28;19916;-77
2022/05/02 11:47:15;;;;;;;;;;;;;;;17.15;100.00;102023.19;5072843;28;20003;-77
2022/05/02 11:49:57;;;;;;;;;;;;;;;17.19;100.00;102030.41;5074129;28;20531;-76
2022/05/02 11:52:30;;;;;;;;;;;;;;;16.72;100.00;102020.19;5074931;28;19916;-76
2022/05/02 11:54:57;;;;;;;;;;;;;;;16.30;100.00;102016.28;5074509;28;19917;-77
2022/05/02 11:57:26;;;;;;;;;;;;;;;16.51;100.00;102020.44;5073831;28;20004;-78
2022/05/02 11:59:58;;;;;;;;;;;;;;;16.79;100.00;102014.19;5073650;28;19917;-78
2022/05/02 12:05:18;;;;;;;;;;;;;;;16.81;100.00;102015.16;5075063;28;19917;-77
2022/05/02 12:07:49;;;;;;;;;;;;;;;17.02;100.00;102017.53;5073555;28;20364;-78
2022/05/02 12:10:15;;;;;;;;;;;;;;;16.60;100.00;102018.06;5073031;28;19912;-77
2022/05/02 12:12:48;;;;;;;;;;;;;;;16.81;100.00;102016.88;5075303;28;19917;-77
2022/05/02 12:15:14;;;;;;;;;;;;;;;16.63;100.00;102011.94;5073299;28;20271;-77
2022/05/02 12:17:56;;;;;;;;;;;;;;;16.71;100.00;102009.53;5073051;28;19999;-79
2022/05/02 12:20:29;;;;;;;;;;;;;;;16.42;100.00;102010.47;5073651;28;19916;-77
2022/05/02 12:23:07;;;;;;;;;;;;;;;16.65;100.00;102003.13;5073195;28;19913;-76
2022/05/02 12:25:34;;;;;;;;;;;;;;;16.86;100.00;102000.25;5073140;28;19955;-78
2022/05/02 12:28:04;;;;;;;;;;;;;;;17.11;100.00;102006.25;5055813;28;19958;-77
2022/05/02 12:30:30;;;;;;;;;;;;;;;17.08;100.00;101992.88;5073353;28;19923;-76
2022/05/02 12:33:00;;;;;;;;;;;;;;;16.94;100.00;101994.25;5056160;28;19956;-78
2022/05/02 12:35:32;;;;;;;;;;;;;;;17.05;100.00;102006.97;5057000;28;20342;-77
2022/05/02 12:37:58;;;;;;;;;;;;;;;17.08;100.00;101991.97;5072160;28;20426;-77
2022/05/02 12:40:24;;;;;;;;;;;;;;;17.19;100.00;101977.19;5073175;28;19921;-77
2022/05/02 12:43:06;;;;;;;;;;;;;;;17.15;100.00;101983.28;5072849;28;19917;-77
2022/05/02 12:45:42;;;;;;;;;;;;;;;17.27;100.00;101988.03;5072708;28;20376;-76
2022/05/02 12:48:08;;;;;;;;;;;;;;;17.32;100.00;101973.09;5073099;28;19916;-77
2022/05/02 12:50:45;;;;;;;;;;;;;;;17.18;100.00;101973.63;5072395;28;19917;-77
2022/05/02 12:54:09;;;;;;;;;;;;;;;17.32;100.00;101973.97;5038590;28;19927;-77
2022/05/02 12:56:06;;;;;;;;;;;;;;;17.30;100.00;101975.69;5072900;28;20441;-76
2022/05/02 13:01:21;;;;;;;;;;;;;;;17.03;100.00;101983.88;5074690;28;20012;-77
2022/05/02 13:04:00;;;;;;;;;;;;;;;17.33;100.00;101964.25;5073430;28;19999;-77
2022/05/02 13:06:26;;;;;;;;;;;;;;;17.57;100.00;101966.63;5055643;28;19916;-77
2022/05/02 13:09:05;;;;;;;;;;;;;;;17.49;100.00;101969.09;5073068;28;19924;-77
2022/05/02 13:11:35;;;;;;;;;;;;;;;17.49;100.00;101961.09;5055614;28;19919;-78
2022/05/02 13:14:05;;;;;;;;;;;;;;;17.37;100.00;101961.69;5054875;28;19917;-78
2022/05/02 13:16:41;;;;;;;;;;;;;;;17.27;100.00;101953.44;5073612;28;20381;-82
2022/05/02 13:19:07;;;;;;;;;;;;;;;17.40;100.00;101945.81;5070664;28;19920;-78
2022/05/02 13:21:32;;;;;;;;;;;;;;;17.17;100.00;101958.53;5074164;28;20041;-77